createdAt,value
2019-01-16T00:04:25.279Z,50.6
2019-01-16T00:09:25.964Z,50.5
2019-01-16T00:14:26.489Z,50.4
2019-01-16T00:19:27.078Z,50.3
2019-01-16T00:24:27.683Z,50.2
2019-01-16T00:29:29.821Z,50.1
2019-01-16T00:34:31.933Z,50.1
2019-01-16T00:39:34.043Z,49.9
2019-01-16T00:44:36.126Z,49.8
2019-01-16T00:49:38.206Z,49.7
2019-01-16T00:54:40.261Z,49.6
2019-01-16T00:59:42.380Z,49.6
2019-01-16T01:04:42.848Z,49.4
2019-01-16T01:09:43.328Z,49.4
2019-01-16T01:14:43.790Z,49.3
2019-01-16T01:19:44.265Z,49.2
2019-01-16T01:24:44.730Z,49.1
2019-01-16T01:29:45.211Z,49.1
2019-01-16T01:34:45.691Z,48.9
2019-01-16T01:39:45.930Z,48.9
2019-01-16T01:44:46.397Z,48.7
2019-01-16T01:49:46.825Z,48.7
2019-01-16T01:54:47.317Z,48.6
2019-01-16T01:59:47.810Z,48.5
2019-01-16T02:04:48.284Z,48.4
2019-01-16T02:09:48.820Z,48.3
2019-01-16T02:14:49.277Z,48.3
2019-01-16T02:19:49.727Z,48.2
2019-01-16T02:24:51.913Z,48.1
2019-01-16T02:29:54.007Z,48
2019-01-16T02:34:56.150Z,47.9
2019-01-16T02:39:58.202Z,47.9
2019-01-16T02:45:00.370Z,47.7
2019-01-16T02:50:02.409Z,47.7
2019-01-16T02:55:04.469Z,47.6
2019-01-16T03:00:06.563Z,47.6
2019-01-16T03:05:08.625Z,47.4
2019-01-16T03:10:10.658Z,47.4
2019-01-16T03:15:12.698Z,47.3
2019-01-16T03:20:15.456Z,47.2
2019-01-16T03:25:17.516Z,47.1
2019-01-16T03:30:19.714Z,47.1
2019-01-16T03:35:21.782Z,47
2019-01-16T03:40:23.855Z,46.9
2019-01-16T03:45:25.965Z,46.9
2019-01-16T03:50:28.034Z,46.7
2019-01-16T03:55:30.079Z,46.7
2019-01-16T04:00:32.110Z,46.6
2019-01-16T04:05:37.087Z,46.6
2019-01-16T04:10:39.118Z,46.5
2019-01-16T04:15:41.115Z,46.4
2019-01-16T04:20:43.136Z,46.3
2019-01-16T04:25:45.159Z,46.2
2019-01-16T04:30:47.189Z,46.2
2019-01-16T04:35:49.249Z,46.1
2019-01-16T04:40:51.299Z,46.1
2019-01-16T04:45:53.278Z,46
2019-01-16T04:50:55.289Z,45.9
2019-01-16T04:55:57.339Z,45.8
2019-01-16T05:00:59.362Z,45.8
2019-01-16T05:06:01.450Z,45.7
2019-01-16T05:11:03.502Z,45.6
2019-01-16T05:16:05.445Z,45.6
2019-01-16T05:21:08.173Z,45.5
2019-01-16T05:26:10.161Z,45.4
2019-01-16T05:31:12.243Z,45.4
2019-01-16T05:36:14.263Z,45.3
2019-01-16T05:41:16.364Z,45.2
2019-01-16T05:46:18.451Z,45.2
2019-01-16T05:51:20.520Z,44.6
2019-01-16T05:56:22.473Z,44.5
2019-01-16T06:01:24.442Z,44.4
2019-01-16T06:06:26.514Z,44.4
2019-01-16T06:11:37.209Z,44.3
2019-01-16T06:16:39.187Z,44.2
2019-01-16T06:21:41.146Z,44.2
2019-01-16T06:26:43.102Z,44.1
2019-01-16T06:31:45.057Z,44.1
2019-01-16T06:36:47.052Z,44
2019-01-16T06:41:49.066Z,43.9
2019-01-16T06:46:51.004Z,43.9
2019-01-16T06:51:52.948Z,43.8
2019-01-16T06:56:54.912Z,43.7
2019-01-16T07:01:56.881Z,43.7
2019-01-16T07:06:59.967Z,43.6
2019-01-16T07:12:01.919Z,43.6
2019-01-16T07:17:03.871Z,43.6
2019-01-16T07:22:05.848Z,43.5
2019-01-16T07:27:07.771Z,43.4
2019-01-16T07:32:09.652Z,43.4
2019-01-16T07:37:11.573Z,43.3
2019-01-16T07:42:13.505Z,43.3
2019-01-16T07:47:15.480Z,43.2
2019-01-16T07:52:17.412Z,43.1
2019-01-16T07:57:19.322Z,43.1
2019-01-16T08:02:21.230Z,43
2019-01-16T08:07:23.154Z,42.9
2019-01-16T08:12:25.090Z,42.9
2019-01-16T08:17:27.043Z,42.9
2019-01-16T08:22:28.945Z,42.8
2019-01-16T08:27:31.022Z,42.7
2019-01-16T08:32:32.988Z,42.7
2019-01-16T08:37:34.876Z,42.7
2019-01-16T08:42:36.853Z,42.6
2019-01-16T08:47:38.764Z,42.6
2019-01-16T08:52:40.721Z,42.5
2019-01-16T08:57:42.630Z,42.4
2019-01-16T09:07:51.075Z,42.4
2019-01-16T09:12:53.576Z,42.3
2019-01-16T09:17:55.521Z,42.2
2019-01-16T09:22:57.422Z,42.2
2019-01-16T09:27:59.369Z,42.1
2019-01-16T09:33:01.287Z,42.1
2019-01-16T09:38:03.207Z,42.1
2019-01-16T09:43:05.102Z,42
2019-01-16T09:48:07.055Z,41.9
2019-01-16T09:53:08.937Z,41.9
2019-01-16T09:58:10.821Z,41.9
2019-01-16T10:03:12.713Z,41.8
2019-01-16T10:08:14.657Z,41.7
2019-01-16T10:13:16.501Z,41.7
2019-01-16T10:18:18.361Z,41.7
2019-01-16T10:23:29.234Z,41.6
2019-01-16T10:28:31.109Z,41.6
2019-01-16T10:33:32.939Z,41.5
2019-01-16T10:38:34.836Z,41.5
2019-01-16T10:43:39.669Z,41.4
2019-01-16T10:48:41.614Z,41.4
2019-01-16T10:53:43.517Z,41.4
2019-01-16T10:58:45.376Z,41.3
2019-01-16T11:03:47.243Z,41.2
2019-01-16T11:08:49.079Z,41.2
2019-01-16T11:13:51.735Z,41.2
2019-01-16T11:18:53.570Z,41.1
2019-01-16T11:23:55.456Z,41.1
2019-01-16T11:28:57.305Z,41
2019-01-16T11:33:59.192Z,41
2019-01-16T11:39:01.068Z,40.9
2019-01-16T11:44:03.013Z,40.9
2019-01-16T11:49:04.917Z,40.9
2019-01-16T11:54:06.855Z,40.8
2019-01-16T11:59:08.858Z,40.8
2019-01-16T12:04:10.806Z,40.8
2019-01-16T12:09:13.102Z,40.7
2019-01-16T12:14:15.253Z,40.6
2019-01-16T12:19:17.399Z,40.6
2019-01-16T12:24:19.331Z,40.6
2019-01-16T12:29:22.145Z,40.5
2019-01-16T12:34:24.112Z,40.5
2019-01-16T12:39:25.818Z,40.4
2019-01-16T12:44:27.715Z,40.4
2019-01-16T12:49:29.572Z,40.4
2019-01-16T12:54:31.492Z,40.3
2019-01-16T12:59:33.401Z,40.2
2019-01-16T13:04:35.253Z,40.2
2019-01-16T13:09:37.106Z,40.2
2019-01-16T13:14:39.004Z,40.2
2019-01-16T13:19:40.418Z,40.1
2019-01-16T13:24:42.251Z,40.1
2019-01-16T13:29:44.705Z,40.1
2019-01-16T13:34:46.621Z,40
2019-01-16T13:39:48.107Z,39.9
2019-01-16T13:44:50.485Z,39.9
2019-01-16T13:49:52.352Z,39.9
2019-01-16T13:54:54.210Z,39.9
2019-01-16T13:59:56.340Z,39.8
2019-01-16T14:04:57.988Z,39.7
2019-01-16T14:09:59.832Z,39.7
2019-01-16T14:15:01.751Z,39.7
2019-01-16T14:20:03.423Z,39.6
2019-01-16T14:25:05.286Z,39.6
2019-01-16T14:30:07.166Z,39.6
2019-01-16T14:35:09.078Z,39.5
2019-01-16T14:40:12.053Z,39.5
2019-01-16T14:45:13.884Z,39.4
2019-01-16T14:50:15.705Z,39.4
2019-01-16T14:55:17.572Z,39.4
2019-01-16T15:00:19.460Z,39.4
2019-01-16T15:05:21.348Z,39.3
2019-01-16T15:10:23.251Z,39.2
2019-01-16T15:15:28.191Z,39.2
2019-01-16T15:20:31.313Z,39.2
2019-01-16T15:25:35.597Z,39.2
2019-01-16T15:30:37.403Z,39.1
2019-01-16T15:35:39.992Z,39.1
2019-01-16T15:40:41.845Z,39.1
2019-01-16T15:45:43.693Z,39
2019-01-16T15:50:45.524Z,39
2019-01-16T15:55:47.372Z,38.9
2019-01-16T16:00:49.180Z,38.9
2019-01-16T16:05:53.703Z,38.9
2019-01-16T16:10:55.590Z,38.9
2019-01-16T16:15:57.467Z,38.8
2019-01-16T16:20:58.901Z,38.8
2019-01-16T16:26:00.795Z,38.7
2019-01-16T16:31:02.639Z,38.7
2019-01-16T16:36:04.532Z,41.2
2019-01-16T16:41:06.459Z,43.6
2019-01-16T16:46:08.410Z,45.4
2019-01-16T16:51:10.447Z,46.8
2019-01-16T16:56:12.548Z,47.9
2019-01-16T17:01:17.572Z,48.9
2019-01-16T17:06:18.024Z,49.8
2019-01-16T17:11:18.513Z,50.5
2019-01-16T17:16:19.058Z,51.2
2019-01-16T17:21:19.542Z,51.8
2019-01-16T17:26:22.790Z,52.1
2019-01-16T17:31:23.425Z,52.6
2019-01-16T17:36:24.031Z,53.3
2019-01-16T17:41:24.748Z,53.7
2019-01-16T17:46:25.484Z,54
2019-01-16T17:51:26.138Z,54.4
2019-01-16T17:56:26.752Z,54.6
2019-01-16T18:01:27.393Z,54.9
2019-01-16T18:06:28.076Z,55.1
2019-01-16T18:11:28.786Z,55.2
2019-01-16T18:16:32.282Z,55.3
2019-01-16T18:21:37.757Z,55.4
2019-01-16T18:26:39.538Z,55.6
2019-01-16T18:31:44.390Z,55.6
2019-01-16T18:36:54.498Z,56
2019-01-16T18:41:57.957Z,56.4
2019-01-16T18:47:02.625Z,56.9
2019-01-16T18:52:03.343Z,57.2
2019-01-16T18:57:08.516Z,57.4
2019-01-16T19:02:31.557Z,57.5
2019-01-16T19:07:33.606Z,57.4
2019-01-16T19:12:34.523Z,57.1
2019-01-16T19:17:35.254Z,56.6
2019-01-16T19:22:37.105Z,56.7
2019-01-16T19:27:38.867Z,57.2
2019-01-16T19:32:39.516Z,57.2
2019-01-16T19:37:40.156Z,57.2
2019-01-16T19:42:43.853Z,57.2
2019-01-16T19:47:44.559Z,57.1
2019-01-16T19:52:45.240Z,57.1
2019-01-16T19:57:46.090Z,57
2019-01-16T20:02:46.776Z,56.9
2019-01-16T20:07:47.513Z,56.9
2019-01-16T20:12:51.201Z,56.9
2019-01-16T20:17:51.892Z,56.8
2019-01-16T20:22:52.615Z,56.7
2019-01-16T20:27:53.807Z,56.7
2019-01-16T20:32:54.542Z,56.6
2019-01-16T20:37:55.308Z,56.6
2019-01-16T20:42:56.116Z,56.5
2019-01-16T20:47:56.987Z,56.4
2019-01-16T20:52:58.519Z,56.4
2019-01-16T20:57:59.497Z,56.4
2019-01-16T21:03:00.247Z,56.2
2019-01-16T21:08:00.989Z,56.2
2019-01-16T21:13:01.705Z,56.1
2019-01-16T21:18:11.360Z,56.1
2019-01-16T21:23:12.094Z,56.1
2019-01-16T21:28:14.112Z,55.9
2019-01-16T21:33:15.546Z,55.9
2019-01-16T21:38:16.224Z,55.9
2019-01-16T21:43:16.927Z,55.8
2019-01-16T21:48:18.312Z,55.7
2019-01-16T21:53:18.951Z,55.7
2019-01-16T21:58:20.849Z,55.6
2019-01-16T22:03:21.695Z,55.5
2019-01-16T22:08:22.484Z,55.5
2019-01-16T22:13:23.184Z,55.4
2019-01-16T22:18:23.922Z,55.3
2019-01-16T22:23:24.590Z,55.2
2019-01-16T22:28:26.427Z,55.2
2019-01-16T22:33:27.113Z,55.1
2019-01-16T22:38:27.761Z,55.1
2019-01-16T22:43:28.414Z,55
2019-01-16T22:48:29.074Z,54.9
2019-01-16T22:53:29.643Z,54.9
2019-01-16T22:58:30.300Z,54.8
2019-01-16T23:03:30.962Z,54.7
2019-01-16T23:08:31.533Z,54.7
2019-01-16T23:13:32.133Z,54.6
2019-01-16T23:18:35.726Z,54.5
2019-01-16T23:23:36.402Z,54.4
2019-01-16T23:28:37.114Z,54.4
2019-01-16T23:33:37.746Z,54.3
2019-01-16T23:38:38.354Z,54.2
2019-01-16T23:43:38.935Z,54.2
2019-01-16T23:48:39.495Z,54.1
2019-01-16T23:53:40.120Z,54
2019-01-16T23:58:40.807Z,53.9
